JST508 YMML-YSSY
Flight info
| Callsign | JST508 |
|---|---|
| Flight time | 0h 59m |
| Altitude | 35000 |
| Route | DOSEL Y59 RIVET |
| Aircraft | A321/M-SDE3FGHIRWY/LB1 |
Departure
| Time | 2026-04-24 23:34 |
|---|---|
| Airport | Melbourne Airport (YMML) |
Arrival
| Time | 2026-04-25 00:34 |
|---|---|
| Airport | Sydney Kingsford Smith International Airport (YSSY) |
| Time | Latitude | Longitude | Altitude | Speed | Heading |
|---|---|---|---|---|---|
| 2026-04-24 23:18 | -37.67629 | 144.84752 | 376 ft | 0 kts | 351° |
| 2026-04-24 23:28 | -37.67638 | 144.84754 | 376 ft | 4 kts | 345° |
| 2026-04-24 23:28 | -37.67657 | 144.84766 | 375 ft | 4 kts | 279° |
| 2026-04-24 23:28 | -37.67653 | 144.84780 | 375 ft | 0 kts | 209° |
| 2026-04-24 23:29 | -37.67655 | 144.84779 | 375 ft | 1 kts | 209° |
| 2026-04-24 23:29 | -37.67663 | 144.84773 | 375 ft | 2 kts | 210° |
| 2026-04-24 23:29 | -37.67683 | 144.84758 | 374 ft | 4 kts | 212° |
| 2026-04-24 23:30 | -37.67716 | 144.84730 | 372 ft | 7 kts | 216° |
| 2026-04-24 23:30 | -37.67741 | 144.84659 | 370 ft | 10 kts | 258° |
| 2026-04-24 23:30 | -37.67794 | 144.84595 | 371 ft | 13 kts | 202° |
| 2026-04-24 23:30 | -37.67828 | 144.84485 | 370 ft | 15 kts | 261° |
| 2026-04-24 23:31 | -37.67839 | 144.84400 | 366 ft | 9 kts | 261° |
| 2026-04-24 23:31 | -37.67849 | 144.84309 | 361 ft | 12 kts | 262° |
| 2026-04-24 23:31 | -37.67863 | 144.84199 | 362 ft | 14 kts | 262° |
| 2026-04-24 23:31 | -37.67874 | 144.84111 | 360 ft | 5 kts | 262° |
| 2026-04-24 23:32 | -37.67880 | 144.84054 | 358 ft | 8 kts | 262° |
| 2026-04-24 23:32 | -37.67872 | 144.83980 | 357 ft | 6 kts | 308° |
| 2026-04-24 23:32 | -37.67840 | 144.83961 | 360 ft | 5 kts | 348° |
| 2026-04-24 23:32 | -37.67823 | 144.83958 | 359 ft | 0 kts | 352° |
| 2026-04-24 23:33 | -37.67698 | 144.83934 | 365 ft | 50 kts | 351° |
| 2026-04-24 23:33 | -37.67145 | 144.83831 | 382 ft | 110 kts | 352° |
| 2026-04-24 23:34 | -37.66214 | 144.83658 | 504 ft | 151 kts | 348° |
| 2026-04-24 23:34 | -37.65165 | 144.83444 | 1127 ft | 155 kts | 351° |
| 2026-04-24 23:34 | -37.64085 | 144.83230 | 1835 ft | 158 kts | 354° |
| 2026-04-24 23:34 | -37.62995 | 144.83035 | 2541 ft | 158 kts | 352° |
| 2026-04-24 23:35 | -37.61852 | 144.82815 | 2802 ft | 176 kts | 351° |
| 2026-04-24 23:35 | -37.60566 | 144.82567 | 2941 ft | 197 kts | 351° |
| 2026-04-24 23:35 | -37.59132 | 144.82496 | 3200 ft | 214 kts | 6° |
| 2026-04-24 23:35 | -37.57689 | 144.83146 | 3594 ft | 226 kts | 21° |
| 2026-04-24 23:36 | -37.56272 | 144.84022 | 4020 ft | 237 kts | 20° |
| 2026-04-24 23:36 | -37.54735 | 144.84953 | 4480 ft | 249 kts | 19° |
| 2026-04-24 23:36 | -37.53155 | 144.85907 | 4912 ft | 253 kts | 20° |
| 2026-04-24 23:36 | -37.51589 | 144.86858 | 5267 ft | 252 kts | 20° |
| 2026-04-24 23:37 | -37.49997 | 144.87826 | 5940 ft | 255 kts | 20° |
| 2026-04-24 23:37 | -37.48386 | 144.88799 | 6543 ft | 259 kts | 21° |
| 2026-04-24 23:37 | -37.45089 | 144.90797 | 7665 ft | 268 kts | 22° |
| 2026-04-24 23:38 | -37.43527 | 144.92159 | 8227 ft | 280 kts | 38° |
| 2026-04-24 23:38 | -37.42272 | 144.94095 | 8775 ft | 289 kts | 50° |
| 2026-04-24 23:38 | -37.41106 | 144.96189 | 9334 ft | 293 kts | 51° |
| 2026-04-24 23:38 | -37.39917 | 144.98311 | 9904 ft | 297 kts | 50° |
| 2026-04-24 23:39 | -37.38731 | 145.00418 | 10480 ft | 300 kts | 50° |
| 2026-04-24 23:39 | -37.37914 | 145.01864 | 10661 ft | 310 kts | 51° |
| 2026-04-24 23:39 | -37.36616 | 145.04154 | 10786 ft | 330 kts | 51° |
| 2026-04-24 23:39 | -37.34784 | 145.07378 | 10993 ft | 351 kts | 51° |
| 2026-04-24 23:40 | -37.33352 | 145.09904 | 11428 ft | 357 kts | 52° |
| 2026-04-24 23:40 | -37.32373 | 145.11635 | 11782 ft | 359 kts | 52° |
| 2026-04-24 23:40 | -37.30937 | 145.14168 | 12301 ft | 362 kts | 52° |
| 2026-04-24 23:40 | -37.29472 | 145.16752 | 12842 ft | 364 kts | 52° |
| 2026-04-24 23:41 | -37.27993 | 145.19362 | 13390 ft | 367 kts | 52° |
| 2026-04-24 23:41 | -37.26509 | 145.21976 | 13918 ft | 369 kts | 52° |
| 2026-04-24 23:41 | -37.25003 | 145.24624 | 14429 ft | 372 kts | 52° |
| 2026-04-24 23:41 | -37.23495 | 145.27274 | 14899 ft | 375 kts | 52° |
| 2026-04-24 23:42 | -37.21987 | 145.29918 | 15371 ft | 377 kts | 52° |
| 2026-04-24 23:42 | -37.20454 | 145.32610 | 15835 ft | 380 kts | 53° |
| 2026-04-24 23:42 | -37.18906 | 145.35326 | 16289 ft | 383 kts | 53° |
| 2026-04-24 23:42 | -37.17362 | 145.38034 | 16728 ft | 386 kts | 53° |
| 2026-04-24 23:43 | -37.15793 | 145.40781 | 17171 ft | 388 kts | 53° |
| 2026-04-24 23:43 | -37.14208 | 145.43553 | 17612 ft | 391 kts | 52° |
| 2026-04-24 23:43 | -37.12605 | 145.46350 | 18001 ft | 395 kts | 53° |
| 2026-04-24 23:43 | -37.11015 | 145.49119 | 18425 ft | 398 kts | 53° |
| 2026-04-24 23:44 | -37.09390 | 145.51950 | 18844 ft | 401 kts | 53° |
| 2026-04-24 23:44 | -37.07755 | 145.54799 | 19201 ft | 403 kts | 53° |
| 2026-04-24 23:44 | -37.06112 | 145.57657 | 19604 ft | 404 kts | 53° |
| 2026-04-24 23:44 | -37.04461 | 145.60525 | 19967 ft | 406 kts | 53° |
| 2026-04-24 23:45 | -37.02803 | 145.63397 | 20338 ft | 408 kts | 53° |
| 2026-04-24 23:45 | -37.01154 | 145.66253 | 20707 ft | 410 kts | 53° |
| 2026-04-24 23:45 | -36.99473 | 145.69164 | 21063 ft | 413 kts | 53° |
| 2026-04-24 23:45 | -36.97780 | 145.72096 | 21429 ft | 414 kts | 52° |
| 2026-04-24 23:46 | -36.96105 | 145.74988 | 21782 ft | 416 kts | 53° |
| 2026-04-24 23:46 | -36.94400 | 145.77930 | 22125 ft | 418 kts | 53° |
| 2026-04-24 23:46 | -36.92688 | 145.80886 | 22481 ft | 420 kts | 53° |
| 2026-04-24 23:46 | -36.90967 | 145.83860 | 22843 ft | 422 kts | 53° |
| 2026-04-24 23:47 | -36.89261 | 145.86815 | 23183 ft | 424 kts | 53° |
| 2026-04-24 23:47 | -36.87526 | 145.89812 | 23482 ft | 427 kts | 52° |
| 2026-04-24 23:47 | -36.85773 | 145.92832 | 23776 ft | 430 kts | 53° |
| 2026-04-24 23:47 | -36.84009 | 145.95864 | 24096 ft | 432 kts | 52° |
| 2026-04-24 23:48 | -36.82239 | 145.98904 | 24375 ft | 434 kts | 52° |
| 2026-04-24 23:48 | -36.80455 | 146.01964 | 24665 ft | 436 kts | 53° |
| 2026-04-24 23:48 | -36.78663 | 146.05035 | 24924 ft | 438 kts | 53° |
| 2026-04-24 23:48 | -36.76888 | 146.08076 | 25204 ft | 439 kts | 53° |
| 2026-04-24 23:49 | -36.75081 | 146.11174 | 25479 ft | 441 kts | 53° |
| 2026-04-24 23:49 | -36.73272 | 146.14270 | 25771 ft | 442 kts | 53° |
| 2026-04-24 23:49 | -36.71450 | 146.17380 | 26047 ft | 444 kts | 53° |
| 2026-04-24 23:49 | -36.69644 | 146.20450 | 26313 ft | 445 kts | 53° |
| 2026-04-24 23:50 | -36.67806 | 146.23574 | 26577 ft | 447 kts | 53° |
| 2026-04-24 23:50 | -36.65960 | 146.26716 | 26838 ft | 449 kts | 53° |
| 2026-04-24 23:50 | -36.64109 | 146.29870 | 27099 ft | 451 kts | 53° |
| 2026-04-24 23:50 | -36.62246 | 146.33049 | 27361 ft | 452 kts | 53° |
| 2026-04-24 23:51 | -36.60411 | 146.36174 | 27636 ft | 453 kts | 53° |
| 2026-04-24 23:51 | -36.58532 | 146.39366 | 27897 ft | 455 kts | 53° |
| 2026-04-24 23:51 | -36.56655 | 146.42551 | 28144 ft | 456 kts | 53° |
| 2026-04-24 23:51 | -36.54775 | 146.45739 | 28391 ft | 458 kts | 53° |
| 2026-04-24 23:52 | -36.52904 | 146.48905 | 28631 ft | 460 kts | 53° |
| 2026-04-24 23:52 | -36.51000 | 146.52126 | 28871 ft | 461 kts | 53° |
| 2026-04-24 23:52 | -36.49112 | 146.55320 | 29104 ft | 463 kts | 53° |
| 2026-04-24 23:52 | -36.47194 | 146.58557 | 29335 ft | 465 kts | 53° |
| 2026-04-24 23:53 | -36.45271 | 146.61795 | 29563 ft | 466 kts | 53° |
| 2026-04-24 23:53 | -36.43337 | 146.65054 | 29773 ft | 468 kts | 52° |
| 2026-04-24 23:53 | -36.41396 | 146.68321 | 29987 ft | 469 kts | 52° |
| 2026-04-24 23:53 | -36.39473 | 146.71550 | 30182 ft | 470 kts | 52° |
| 2026-04-24 23:54 | -36.37523 | 146.74819 | 30388 ft | 472 kts | 52° |
| 2026-04-24 23:54 | -36.35562 | 146.78108 | 30562 ft | 473 kts | 53° |
| 2026-04-24 23:54 | -36.33606 | 146.81387 | 30763 ft | 473 kts | 53° |
| 2026-04-24 23:54 | -36.31648 | 146.84672 | 30992 ft | 472 kts | 53° |
| 2026-04-24 23:55 | -36.29720 | 146.87907 | 31202 ft | 472 kts | 53° |
| 2026-04-24 23:55 | -36.27766 | 146.91177 | 31406 ft | 471 kts | 53° |
| 2026-04-24 23:55 | -36.25803 | 146.94449 | 31594 ft | 471 kts | 53° |
| 2026-04-24 23:55 | -36.23842 | 146.97713 | 31807 ft | 471 kts | 53° |
| 2026-04-24 23:56 | -36.21880 | 147.00975 | 31998 ft | 471 kts | 53° |
| 2026-04-24 23:56 | -36.19948 | 147.04193 | 32186 ft | 471 kts | 53° |
| 2026-04-24 23:56 | -36.17978 | 147.07471 | 32384 ft | 471 kts | 53° |
| 2026-04-24 23:56 | -36.16037 | 147.10698 | 32581 ft | 471 kts | 53° |
| 2026-04-24 23:57 | -36.14060 | 147.13986 | 32801 ft | 470 kts | 53° |
| 2026-04-24 23:57 | -36.12127 | 147.17202 | 33008 ft | 470 kts | 53° |
| 2026-04-24 23:57 | -36.10170 | 147.20453 | 33201 ft | 469 kts | 53° |
| 2026-04-24 23:57 | -36.08219 | 147.23689 | 33395 ft | 469 kts | 54° |
| 2026-04-24 23:58 | -36.06260 | 147.26933 | 33579 ft | 469 kts | 54° |
| 2026-04-24 23:58 | -36.04330 | 147.30121 | 33764 ft | 469 kts | 54° |
| 2026-04-24 23:58 | -36.02374 | 147.33349 | 33960 ft | 469 kts | 54° |
| 2026-04-24 23:58 | -36.00421 | 147.36572 | 34144 ft | 468 kts | 54° |
| 2026-04-24 23:59 | -35.98461 | 147.39801 | 34335 ft | 468 kts | 54° |
| 2026-04-24 23:59 | -35.96507 | 147.43016 | 34523 ft | 468 kts | 54° |
| 2026-04-24 23:59 | -35.94547 | 147.46236 | 34682 ft | 467 kts | 54° |
| 2026-04-24 23:59 | -35.92591 | 147.49448 | 34889 ft | 466 kts | 54° |
| 2026-04-25 00:00 | -35.90672 | 147.52599 | 35130 ft | 463 kts | 54° |
| 2026-04-25 00:00 | -35.88737 | 147.55776 | 35392 ft | 461 kts | 54° |
| 2026-04-25 00:00 | -35.84853 | 147.62134 | 35493 ft | 467 kts | 54° |
| 2026-04-25 00:01 | -35.80929 | 147.68538 | 35495 ft | 473 kts | 54° |
| 2026-04-25 00:01 | -35.76932 | 147.75076 | 35498 ft | 479 kts | 54° |
| 2026-04-25 00:02 | -35.72916 | 147.81624 | 35495 ft | 482 kts | 54° |
| 2026-04-25 00:02 | -35.68857 | 147.88230 | 35493 ft | 483 kts | 54° |
| 2026-04-25 00:03 | -35.64815 | 147.94789 | 35497 ft | 483 kts | 54° |
| 2026-04-25 00:03 | -35.60747 | 148.01379 | 35511 ft | 484 kts | 53° |
| 2026-04-25 00:04 | -35.56659 | 148.07981 | 35510 ft | 484 kts | 53° |
| 2026-04-25 00:04 | -35.52597 | 148.14529 | 35514 ft | 484 kts | 53° |
| 2026-04-25 00:05 | -35.48505 | 148.21124 | 35512 ft | 484 kts | 53° |
| 2026-04-25 00:05 | -35.44436 | 148.27662 | 35514 ft | 484 kts | 53° |
| 2026-04-25 00:06 | -35.40339 | 148.34235 | 35513 ft | 484 kts | 53° |
| 2026-04-25 00:06 | -35.36267 | 148.40763 | 35512 ft | 483 kts | 53° |
| 2026-04-25 00:07 | -35.32162 | 148.47331 | 35518 ft | 483 kts | 53° |
| 2026-04-25 00:07 | -35.28092 | 148.53834 | 35516 ft | 483 kts | 54° |
| 2026-04-25 00:08 | -35.23975 | 148.60381 | 35520 ft | 483 kts | 53° |
| 2026-04-25 00:08 | -35.19883 | 148.66877 | 35517 ft | 483 kts | 54° |
| 2026-04-25 00:09 | -35.15772 | 148.73405 | 35526 ft | 484 kts | 54° |
| 2026-04-25 00:09 | -35.11677 | 148.79892 | 35530 ft | 484 kts | 54° |
| 2026-04-25 00:10 | -35.07555 | 148.86403 | 35532 ft | 484 kts | 54° |
| 2026-04-25 00:10 | -35.03433 | 148.92908 | 35533 ft | 484 kts | 54° |
| 2026-04-25 00:11 | -35.00013 | 148.98292 | 35530 ft | 484 kts | 54° |
| 2026-04-25 00:11 | -34.95201 | 149.05851 | 35537 ft | 484 kts | 54° |
| 2026-04-25 00:12 | -34.91045 | 149.12371 | 35529 ft | 484 kts | 54° |
| 2026-04-25 00:12 | -34.86926 | 149.18825 | 35532 ft | 484 kts | 54° |
| 2026-04-25 00:13 | -34.82777 | 149.25315 | 35525 ft | 484 kts | 54° |
| 2026-04-25 00:13 | -34.80712 | 149.28539 | 35172 ft | 481 kts | 54° |
| 2026-04-25 00:13 | -34.78681 | 149.31705 | 34655 ft | 481 kts | 54° |
| 2026-04-25 00:14 | -34.76610 | 149.34927 | 34134 ft | 483 kts | 54° |
| 2026-04-25 00:14 | -34.74548 | 149.38163 | 33604 ft | 483 kts | 57° |
| 2026-04-25 00:14 | -34.72827 | 149.41655 | 33082 ft | 480 kts | 64° |
| 2026-04-25 00:14 | -34.71286 | 149.45219 | 32574 ft | 481 kts | 64° |
| 2026-04-25 00:15 | -34.69724 | 149.48821 | 32073 ft | 481 kts | 64° |
| 2026-04-25 00:15 | -34.68156 | 149.52425 | 31578 ft | 482 kts | 64° |
| 2026-04-25 00:15 | -34.66582 | 149.56033 | 31085 ft | 482 kts | 64° |
| 2026-04-25 00:15 | -34.65005 | 149.59637 | 30647 ft | 482 kts | 64° |
| 2026-04-25 00:16 | -34.63427 | 149.63235 | 30448 ft | 482 kts | 64° |
| 2026-04-25 00:16 | -34.61848 | 149.66823 | 30508 ft | 482 kts | 64° |
| 2026-04-25 00:16 | -34.58703 | 149.73972 | 30327 ft | 481 kts | 64° |
| 2026-04-25 00:17 | -34.57124 | 149.77561 | 29768 ft | 482 kts | 64° |
| 2026-04-25 00:17 | -34.55545 | 149.81160 | 29232 ft | 483 kts | 64° |
| 2026-04-25 00:17 | -34.53964 | 149.84767 | 28686 ft | 483 kts | 64° |
| 2026-04-25 00:17 | -34.52387 | 149.88360 | 28157 ft | 480 kts | 64° |
| 2026-04-25 00:18 | -34.50815 | 149.91930 | 27638 ft | 476 kts | 64° |
| 2026-04-25 00:18 | -34.49277 | 149.95419 | 27142 ft | 472 kts | 64° |
| 2026-04-25 00:18 | -34.47730 | 149.98916 | 26641 ft | 468 kts | 64° |
| 2026-04-25 00:18 | -34.46191 | 150.02391 | 26146 ft | 464 kts | 63° |
| 2026-04-25 00:19 | -34.44683 | 150.05787 | 25673 ft | 460 kts | 63° |
| 2026-04-25 00:19 | -34.43165 | 150.09195 | 25199 ft | 457 kts | 63° |
| 2026-04-25 00:19 | -34.41658 | 150.12575 | 24734 ft | 453 kts | 63° |
| 2026-04-25 00:19 | -34.40169 | 150.15924 | 24273 ft | 450 kts | 63° |
| 2026-04-25 00:20 | -34.38685 | 150.19262 | 23787 ft | 446 kts | 63° |
| 2026-04-25 00:20 | -34.37235 | 150.22520 | 23246 ft | 442 kts | 63° |
| 2026-04-25 00:20 | -34.35778 | 150.25789 | 22714 ft | 439 kts | 63° |
| 2026-04-25 00:20 | -34.34329 | 150.29037 | 22190 ft | 435 kts | 63° |
| 2026-04-25 00:21 | -34.32898 | 150.32239 | 21681 ft | 431 kts | 63° |
| 2026-04-25 00:21 | -34.31476 | 150.35419 | 21179 ft | 428 kts | 63° |
| 2026-04-25 00:21 | -34.30068 | 150.38570 | 20687 ft | 425 kts | 63° |
| 2026-04-25 00:21 | -34.28660 | 150.41715 | 20197 ft | 422 kts | 63° |
| 2026-04-25 00:22 | -34.27285 | 150.44788 | 19722 ft | 419 kts | 63° |
| 2026-04-25 00:22 | -34.25901 | 150.47879 | 19102 ft | 416 kts | 63° |
| 2026-04-25 00:22 | -34.24524 | 150.50959 | 18352 ft | 414 kts | 63° |
| 2026-04-25 00:22 | -34.23159 | 150.54017 | 17551 ft | 411 kts | 63° |
| 2026-04-25 00:23 | -34.21801 | 150.57054 | 16792 ft | 409 kts | 62° |
| 2026-04-25 00:23 | -34.20450 | 150.60069 | 16040 ft | 406 kts | 63° |
| 2026-04-25 00:23 | -34.19124 | 150.63025 | 15317 ft | 404 kts | 62° |
| 2026-04-25 00:23 | -34.17783 | 150.66013 | 14599 ft | 402 kts | 62° |
| 2026-04-25 00:24 | -34.16481 | 150.68990 | 13848 ft | 399 kts | 66° |
| 2026-04-25 00:24 | -34.15767 | 150.72196 | 13066 ft | 395 kts | 85° |
| 2026-04-25 00:24 | -34.15773 | 150.75498 | 12311 ft | 392 kts | 92° |
| 2026-04-25 00:24 | -34.15877 | 150.78743 | 11578 ft | 389 kts | 92° |
| 2026-04-25 00:25 | -34.15983 | 150.81989 | 10836 ft | 380 kts | 92° |
| 2026-04-25 00:25 | -34.16079 | 150.85131 | 9842 ft | 369 kts | 92° |
| 2026-04-25 00:25 | -34.16185 | 150.88205 | 8815 ft | 363 kts | 92° |
| 2026-04-25 00:25 | -34.16311 | 150.91234 | 7817 ft | 358 kts | 93° |
| 2026-04-25 00:26 | -34.16458 | 150.94183 | 6866 ft | 353 kts | 93° |
| 2026-04-25 00:26 | -34.16627 | 150.97094 | 5857 ft | 340 kts | 94° |
| 2026-04-25 00:26 | -34.16796 | 150.99891 | 4854 ft | 328 kts | 92° |
| 2026-04-25 00:26 | -34.16909 | 151.01695 | 4186 ft | 321 kts | 93° |
| 2026-04-25 00:27 | -34.17081 | 151.04341 | 3397 ft | 307 kts | 93° |
| 2026-04-25 00:27 | -34.17304 | 151.07697 | 3086 ft | 291 kts | 93° |
| 2026-04-25 00:27 | -34.17411 | 151.09289 | 3005 ft | 282 kts | 93° |
| 2026-04-25 00:27 | -34.17568 | 151.11585 | 2999 ft | 264 kts | 93° |
| 2026-04-25 00:28 | -34.17716 | 151.13714 | 3024 ft | 243 kts | 93° |
| 2026-04-25 00:28 | -34.17859 | 151.15707 | 3006 ft | 234 kts | 93° |
| 2026-04-25 00:28 | -34.17795 | 151.17640 | 3006 ft | 229 kts | 76° |
| 2026-04-25 00:28 | -34.17229 | 151.19419 | 3007 ft | 226 kts | 57° |
| 2026-04-25 00:29 | -34.16248 | 151.20849 | 3006 ft | 224 kts | 39° |
| 2026-04-25 00:29 | -34.14938 | 151.21836 | 3007 ft | 222 kts | 21° |
| 2026-04-25 00:29 | -34.13446 | 151.22266 | 3005 ft | 216 kts | 3° |
| 2026-04-25 00:29 | -34.11984 | 151.22115 | 2997 ft | 207 kts | 348° |
| 2026-04-25 00:30 | -34.10585 | 151.21749 | 2835 ft | 204 kts | 348° |
| 2026-04-25 00:30 | -34.09220 | 151.21393 | 2600 ft | 202 kts | 348° |
| 2026-04-25 00:30 | -34.07863 | 151.21039 | 2342 ft | 194 kts | 348° |
| 2026-04-25 00:30 | -34.06584 | 151.20706 | 2073 ft | 181 kts | 347° |
| 2026-04-25 00:31 | -34.05391 | 151.20396 | 1836 ft | 170 kts | 347° |
| 2026-04-25 00:31 | -34.04255 | 151.20100 | 1611 ft | 161 kts | 347° |
| 2026-04-25 00:31 | -34.03202 | 151.19827 | 1394 ft | 151 kts | 347° |
| 2026-04-25 00:31 | -34.02177 | 151.19560 | 1207 ft | 149 kts | 347° |
| 2026-04-25 00:32 | -34.01192 | 151.19316 | 952 ft | 148 kts | 348° |
| 2026-04-25 00:32 | -34.00180 | 151.19078 | 757 ft | 147 kts | 348° |
| 2026-04-25 00:32 | -33.99225 | 151.18813 | 541 ft | 147 kts | 343° |
| 2026-04-25 00:32 | -33.98224 | 151.18534 | 360 ft | 148 kts | 341° |
| 2026-04-25 00:33 | -33.97204 | 151.18290 | 205 ft | 149 kts | 345° |
| 2026-04-25 00:33 | -33.96197 | 151.18011 | 33 ft | 144 kts | 344° |
| 2026-04-25 00:33 | -33.95304 | 151.17773 | 29 ft | 116 kts | 347° |
| 2026-04-25 00:33 | -33.94618 | 151.17595 | 30 ft | 87 kts | 347° |
| 2026-04-25 00:34 | -33.94125 | 151.17467 | 27 ft | 46 kts | 348° |
| 2026-04-25 00:34 | -33.93939 | 151.17431 | 26 ft | 14 kts | 20° |
| 2026-04-25 00:34 | -33.93900 | 151.17523 | 28 ft | 5 kts | 74° |
| 2026-04-25 00:34 | -33.93891 | 151.17558 | 28 ft | 4 kts | 70° |
| 2026-04-25 00:35 | -33.93873 | 151.17586 | 29 ft | 4 kts | 36° |
| 2026-04-25 00:35 | -33.93842 | 151.17593 | 29 ft | 5 kts | 1° |
| 2026-04-25 00:35 | -33.93803 | 151.17585 | 29 ft | 6 kts | 348° |
| 2026-04-25 00:35 | -33.93755 | 151.17573 | 29 ft | 8 kts | 348° |
| 2026-04-25 00:36 | -33.93698 | 151.17561 | 29 ft | 9 kts | 359° |
| 2026-04-25 00:36 | -33.93649 | 151.17592 | 29 ft | 8 kts | 39° |
| 2026-04-25 00:36 | -33.93611 | 151.17628 | 30 ft | 5 kts | 54° |
| 2026-04-25 00:36 | -33.93602 | 151.17658 | 30 ft | 3 kts | 77° |
| 2026-04-25 00:37 | -33.93599 | 151.17675 | 30 ft | 2 kts | 77° |
| 2026-04-25 00:37 | -33.93597 | 151.17686 | 30 ft | 1 kts | 77° |
| 2026-04-25 00:37 | -33.93596 | 151.17692 | 30 ft | 0 kts | 78° |
| 2026-04-25 00:37 | -33.93596 | 151.17694 | 30 ft | 0 kts | 78° |